Ekaterina — 9HAH8 — position and weather

sailwx.info

Track history (hours):
 
Tides and Currents Weather Stations Pressure Air Temp Water Temp Dewpoint Dewpoint Depression Visibility Wind Speed Wind Dir Waves Ship Positions

Ekaterina

Last reported at 2018-May-17 01:54 UTC. Time now 2018-May-26 04:32 UTC.
Position N 35°51' E 015°31'.
Warning: this ship's position is 9 days out of date.

Length 166 m; draft 8.3 m.

Type: Cargo ship. MMSI: 215776000.

Date/timePositionNaut miles runAvg speedWind from/ knotsBaromVisibWave heightAir tempDewpointWater temp
2018-May-17 01:54N 35°51' E 015°31'512.3
2018-May-17 01:28N 35°52' E 015°25'612.4
2018-May-17 01:00N 35°55' E 015°18'712.3
2018-May-17 00:26N 35°57' E 015°10'812.1
2018-May-16 23:44N 36°00' E 015°01'312.0
2018-May-16 23:28N 36°02' E 014°57'511.9
2018-May-16 23:00N 36°04' E 014°50'611.9
2018-May-16 22:30N 36°06' E 014°43'711.9
2018-May-16 21:57N 36°08' E 014°36'512.0
2018-May-16 21:30N 36°10' E 014°29'612.0
2018-May-16 21:00N 36°12' E 014°23'612.0
2018-May-16 20:29N 36°14' E 014°16'612.0
2018-May-16 20:00N 36°17' E 014°09'812.2
2018-May-16 19:19N 36°20' E 013°60'412.3
2018-May-16 19:00N 36°22' E 013°55'612.2
2018-May-16 18:30N 36°24' E 013°48'612.2
2018-May-16 18:00N 36°27' E 013°41'612.0
2018-May-16 17:30N 36°29' E 013°35'611.9
2018-May-16 16:59N 36°32' E 013°27'611.9
2018-May-16 16:28N 36°34' E 013°20'612.1
2018-May-16 16:00N 36°36' E 013°14'2112.0
2018-May-16 14:14N 36°45' E 012°50'312.1
2018-May-16 14:00N 36°46' E 012°47'  
2018-May-13 16:13N 36°02' W 004°55'313.9
2018-May-13 16:00N 36°01' W 004°59'714.8
2018-May-13 15:30N 36°00' W 005°08'713.8
2018-May-13 15:00N 35°59' W 005°16'714.7
2018-May-13 14:31N 35°58' W 005°25'714.4
2018-May-13 14:00N 35°56' W 005°34'25610.3
2018-May-12 13:13N 38°20' W 009°59'312.3
2018-May-12 13:00N 38°23' W 009°60'612.3
2018-May-12 12:30N 38°29' W 010°01'612.4
2018-May-12 12:00N 38°35' W 010°03'612.3
2018-May-12 11:29N 38°41' W 010°05'612.2
2018-May-12 11:01N 38°47' W 010°05'712.0
2018-May-12 10:26N 38°54' W 010°05'512.1
2018-May-12 10:00N 38°59' W 010°05'611.7
2018-May-12 09:30N 39°05' W 010°05'611.8
2018-May-12 09:01N 39°11' W 010°05'612.0
2018-May-12 08:30N 39°17' W 010°05'  
2018-May-09 17:42N 49°47' W 003°26'212.1
2018-May-09 17:30N 49°48' W 003°23'612.0
2018-May-09 16:59N 49°51' W 003°15'811.7
2018-May-09 16:16N 49°55' W 003°04'311.5
2018-May-09 16:00N 49°57' W 002°59'611.2
2018-May-09 15:30N 49°59' W 002°52'611.1
2018-May-09 14:57N 50°01' W 002°42'4010.7
2018-May-09 11:10N 50°12' W 001°42'212.0
2018-May-09 11:00N 50°13' W 001°39'1312.5
2018-May-09 09:56N 50°17' W 001°19'812.9
2018-May-09 09:19N 50°19' W 001°07'413.9
2018-May-09 09:00N 50°20' W 001°01'2212.9
2018-May-09 07:18N 50°26' W 000°27'412.4
2018-May-09 07:00N 50°28' W 000°22'612.1
2018-May-09 06:30N 50°29' W 000°13'611.8
2018-May-09 06:00N 50°31' W 000°04'611.6
2018-May-09 05:29N 50°33' E 000°05'511.4
2018-May-09 05:00N 50°34' E 000°13'611.0
2018-May-09 04:30N 50°36' E 000°22'510.7
2018-May-09 04:00N 50°38' E 000°30'510.8
2018-May-09 03:30N 50°39' E 000°38'611.1
2018-May-09 03:00N 50°42' E 000°45'611.2
2018-May-09 02:30N 50°46' E 000°52'611.5
2018-May-09 02:00N 50°49' E 000°59'711.9
2018-May-09 01:26N 50°53' E 001°08'812.2
2018-May-09 00:44N 50°59' E 001°18'312.5
2018-May-09 00:30N 51°01' E 001°21'612.5
2018-May-09 00:00N 51°05' E 001°29'612.2
2018-May-08 23:30N 51°09' E 001°36'611.6
2018-May-08 23:00N 51°13' E 001°43'611.2
2018-May-08 22:30N 51°17' E 001°49'511.0
2018-May-08 22:00N 51°22' E 001°52'510.7
2018-May-08 21:30N 51°27' E 001°54'510.1
2018-May-08 21:00N 51°30' E 002°01'510.1
2018-May-08 20:30N 51°34' E 002°06'510.2
2018-May-08 20:01N 51°38' E 002°12'510.3
2018-May-08 19:30N 51°42' E 002°17'610.3
2018-May-08 18:58N 51°46' E 002°23'510.7
2018-May-08 18:30N 51°50' E 002°28'611.0
2018-May-08 18:00N 51°54' E 002°34'611.0
2018-May-08 17:29N 51°59' E 002°36'611.8
2018-May-08 16:58N 52°05' E 002°37'612.0
2018-May-08 16:30N 52°11' E 002°39'712.5
2018-May-08 15:55N 52°17' E 002°44'612.7
2018-May-08 15:28N 52°22' E 002°49'3312.7
2018-May-08 12:53N 52°52' E 003°13'512.2
2018-May-08 12:28N 52°56' E 003°17'712.1
2018-May-08 11:56N 53°02' E 003°20'35911.9
2018-May-07 05:47N 57°40' E 009°60'311.8
2018-May-07 05:30N 57°41' E 010°05'611.8
2018-May-07 05:00N 57°43' E 010°15'611.4
2018-May-07 04:30N 57°45' E 010°25'611.3
2018-May-07 04:00N 57°47' E 010°35'510.4
2018-May-07 03:30N 57°46' E 010°45'510.3
2018-May-07 03:00N 57°42' E 010°39'0 0.8
2018-May-07 02:28N 57°42' E 010°38'0 0.0
2018-May-07 01:58N 57°42' E 010°38'  
Track history (hours):
 
Tides and Currents Weather Stations Pressure Air Temp Water Temp Dewpoint Dewpoint Depression Visibility Wind Speed Wind Dir Waves Ship Positions

Ekaterina

Last reported at 2018-May-17 01:54 UTC. Time now 2018-May-26 04:32 UTC.
Position N 35°51' E 015°31'.
Warning: this ship's position is 9 days out of date.

Length 166 m; draft 8.3 m.

Type: Cargo ship. MMSI: 215776000.

Date/timePositionNaut miles runAvg speedWind from/ knotsBaromVisibWave heightAir tempDewpointWater temp
2018-May-17 01:54N 35°51' E 015°31'512.3
2018-May-17 01:28N 35°52' E 015°25'612.4
2018-May-17 01:00N 35°55' E 015°18'712.3
2018-May-17 00:26N 35°57' E 015°10'812.1
2018-May-16 23:44N 36°00' E 015°01'312.0
2018-May-16 23:28N 36°02' E 014°57'511.9
2018-May-16 23:00N 36°04' E 014°50'611.9
2018-May-16 22:30N 36°06' E 014°43'711.9
2018-May-16 21:57N 36°08' E 014°36'512.0
2018-May-16 21:30N 36°10' E 014°29'612.0
2018-May-16 21:00N 36°12' E 014°23'612.0
2018-May-16 20:29N 36°14' E 014°16'612.0
2018-May-16 20:00N 36°17' E 014°09'812.2
2018-May-16 19:19N 36°20' E 013°60'412.3
2018-May-16 19:00N 36°22' E 013°55'612.2
2018-May-16 18:30N 36°24' E 013°48'612.2
2018-May-16 18:00N 36°27' E 013°41'612.0
2018-May-16 17:30N 36°29' E 013°35'611.9
2018-May-16 16:59N 36°32' E 013°27'611.9
2018-May-16 16:28N 36°34' E 013°20'612.1
2018-May-16 16:00N 36°36' E 013°14'2112.0
2018-May-16 14:14N 36°45' E 012°50'312.1
2018-May-16 14:00N 36°46' E 012°47'  
2018-May-13 16:13N 36°02' W 004°55'313.9
2018-May-13 16:00N 36°01' W 004°59'714.8
2018-May-13 15:30N 36°00' W 005°08'713.8
2018-May-13 15:00N 35°59' W 005°16'714.7
2018-May-13 14:31N 35°58' W 005°25'714.4
2018-May-13 14:00N 35°56' W 005°34'25610.3
2018-May-12 13:13N 38°20' W 009°59'312.3
2018-May-12 13:00N 38°23' W 009°60'612.3
2018-May-12 12:30N 38°29' W 010°01'612.4
2018-May-12 12:00N 38°35' W 010°03'612.3
2018-May-12 11:29N 38°41' W 010°05'612.2
2018-May-12 11:01N 38°47' W 010°05'712.0
2018-May-12 10:26N 38°54' W 010°05'512.1
2018-May-12 10:00N 38°59' W 010°05'611.7
2018-May-12 09:30N 39°05' W 010°05'611.8
2018-May-12 09:01N 39°11' W 010°05'612.0
2018-May-12 08:30N 39°17' W 010°05'  
2018-May-09 17:42N 49°47' W 003°26'212.1
2018-May-09 17:30N 49°48' W 003°23'612.0
2018-May-09 16:59N 49°51' W 003°15'811.7
2018-May-09 16:16N 49°55' W 003°04'311.5
2018-May-09 16:00N 49°57' W 002°59'611.2
2018-May-09 15:30N 49°59' W 002°52'611.1
2018-May-09 14:57N 50°01' W 002°42'4010.7
2018-May-09 11:10N 50°12' W 001°42'212.0
2018-May-09 11:00N 50°13' W 001°39'1312.5
2018-May-09 09:56N 50°17' W 001°19'812.9
2018-May-09 09:19N 50°19' W 001°07'413.9
2018-May-09 09:00N 50°20' W 001°01'2212.9
2018-May-09 07:18N 50°26' W 000°27'412.4
2018-May-09 07:00N 50°28' W 000°22'612.1
2018-May-09 06:30N 50°29' W 000°13'611.8
2018-May-09 06:00N 50°31' W 000°04'611.6
2018-May-09 05:29N 50°33' E 000°05'511.4
2018-May-09 05:00N 50°34' E 000°13'611.0
2018-May-09 04:30N 50°36' E 000°22'510.7
2018-May-09 04:00N 50°38' E 000°30'510.8
2018-May-09 03:30N 50°39' E 000°38'611.1
2018-May-09 03:00N 50°42' E 000°45'611.2
2018-May-09 02:30N 50°46' E 000°52'611.5
2018-May-09 02:00N 50°49' E 000°59'711.9
2018-May-09 01:26N 50°53' E 001°08'812.2
2018-May-09 00:44N 50°59' E 001°18'312.5
2018-May-09 00:30N 51°01' E 001°21'612.5
2018-May-09 00:00N 51°05' E 001°29'612.2
2018-May-08 23:30N 51°09' E 001°36'611.6
2018-May-08 23:00N 51°13' E 001°43'611.2
2018-May-08 22:30N 51°17' E 001°49'511.0
2018-May-08 22:00N 51°22' E 001°52'510.7
2018-May-08 21:30N 51°27' E 001°54'510.1
2018-May-08 21:00N 51°30' E 002°01'510.1
2018-May-08 20:30N 51°34' E 002°06'510.2
2018-May-08 20:01N 51°38' E 002°12'510.3
2018-May-08 19:30N 51°42' E 002°17'610.3
2018-May-08 18:58N 51°46' E 002°23'510.7
2018-May-08 18:30N 51°50' E 002°28'611.0
2018-May-08 18:00N 51°54' E 002°34'611.0
2018-May-08 17:29N 51°59' E 002°36'611.8
2018-May-08 16:58N 52°05' E 002°37'612.0
2018-May-08 16:30N 52°11' E 002°39'712.5
2018-May-08 15:55N 52°17' E 002°44'612.7
2018-May-08 15:28N 52°22' E 002°49'3312.7
2018-May-08 12:53N 52°52' E 003°13'512.2
2018-May-08 12:28N 52°56' E 003°17'712.1
2018-May-08 11:56N 53°02' E 003°20'35911.9
2018-May-07 05:47N 57°40' E 009°60'311.8
2018-May-07 05:30N 57°41' E 010°05'611.8
2018-May-07 05:00N 57°43' E 010°15'611.4
2018-May-07 04:30N 57°45' E 010°25'611.3
2018-May-07 04:00N 57°47' E 010°35'510.4
2018-May-07 03:30N 57°46' E 010°45'510.3
2018-May-07 03:00N 57°42' E 010°39'0 0.8
2018-May-07 02:28N 57°42' E 010°38'0 0.0
2018-May-07 01:58N 57°42' E 010°38'  

Dump ship's entire track history